Time;durP1;ratioP1;P1;durP2;ratioP2;P2;SDS_P1;SDS_P2;PMS_P1;PMS_P2;Temp;Humidity;BMP_temperature;BMP_pressure;BME280_temperature;BME280_humidity;BME280_pressure;Samples;Min_cycle;Max_cycle;Signal;HPM_P1;HPM_P2
2023/08/24 17:45:29;;;;;;;3.40;2.15;;;26.00;96.20;;;;;;10518626;27;20121;-34
2023/08/24 17:50:31;;;;;;;7.50;2.30;;;27.30;92.50;;;;;;10513465;28;20135;-34
2023/08/24 17:55:35;;;;;;;5.47;3.50;;;27.10;92.10;;;;;;10524626;28;20561;-36
2023/08/24 18:00:38;;;;;;;2.03;1.50;;;26.50;93.10;;;;;;10511894;28;20074;-33
2023/08/24 18:05:41;;;;;;;2.05;1.35;;;27.30;91.80;;;;;;10507627;28;20470;-35
2023/08/24 18:10:42;;;;;;;5.35;1.80;;;28.70;83.80;;;;;;10520971;28;20040;-37
2023/08/24 18:15:46;;;;;;;3.05;1.45;;;29.10;78.60;;;;;;10520201;28;20511;-34
2023/08/24 18:20:48;;;;;;;2.90;1.75;;;29.30;77.20;;;;;;10449476;28;20036;-28
2023/08/24 18:25:49;;;;;;;6.30;2.30;;;29.30;77.20;;;;;;10481172;28;20037;-34
2023/08/24 18:30:57;;;;;;;2.60;1.38;;;28.60;80.70;;;;;;10504616;28;20098;-34
2023/08/24 18:35:59;;;;;;;3.67;1.92;;;29.10;78.90;;;;;;10512774;28;20044;-35
2023/08/24 18:41:01;;;;;;;1.17;1.00;;;28.70;80.30;;;;;;10497398;28;20072;-35
2023/08/24 18:46:04;;;;;;;1.73;1.20;;;29.60;75.00;;;;;;10522172;28;20072;-40
2023/08/24 18:51:06;;;;;;;6.85;1.23;;;29.80;73.00;;;;;;10494765;28;20135;-36
2023/08/24 18:56:08;;;;;;;1.92;1.38;;;30.00;72.20;;;;;;10478475;28;20659;-37
2023/08/24 19:01:15;;;;;;;1.75;1.20;;;30.00;71.80;;;;;;10487158;28;20098;-39
2023/08/24 19:06:16;;;;;;;1.55;1.08;;;30.00;71.40;;;;;;10474456;28;20459;-37
2023/08/24 19:11:18;;;;;;;2.95;1.27;;;30.00;71.10;;;;;;10483744;28;20103;-36
2023/08/24 19:16:22;;;;;;;4.93;1.58;;;30.00;70.80;;;;;;10481059;28;20051;-36
2023/08/24 19:21:25;;;;;;;3.78;2.15;;;30.00;70.70;;;;;;10479902;28;20485;-41
2023/08/24 19:26:27;;;;;;;8.18;1.92;;;30.00;71.00;;;;;;10467623;28;20486;-35
2023/08/24 19:31:30;;;;;;;12.68;2.85;;;29.90;71.00;;;;;;10482368;28;20095;-36
2023/08/24 19:36:32;;;;;;;19.05;3.78;;;29.90;71.10;;;;;;10484966;28;20063;-36
2023/08/24 19:41:34;;;;;;;16.40;4.68;;;29.80;71.30;;;;;;10486371;28;20051;-33
2023/08/24 19:46:37;;;;;;;13.07;4.32;;;29.80;72.20;;;;;;10477394;28;20509;-37
2023/08/24 19:51:39;;;;;;;17.42;4.22;;;29.40;73.20;;;;;;10488204;28;20064;-36
2023/08/24 19:56:42;;;;;;;18.65;4.82;;;29.60;72.70;;;;;;10475338;28;20513;-34
2023/08/24 20:01:45;;;;;;;12.65;3.95;;;29.40;73.40;;;;;;10478243;28;20052;-40
2023/08/24 20:06:47;;;;;;;15.00;4.13;;;29.40;73.90;;;;;;10465549;28;20469;-38
2023/08/24 20:11:50;;;;;;;11.05;3.65;;;29.70;72.60;;;;;;10472880;28;20136;-36
2023/08/24 20:16:53;;;;;;;7.40;2.78;;;29.70;72.80;;;;;;10473283;28;20040;-37
2023/08/24 20:21:55;;;;;;;7.03;3.25;;;29.50;73.00;;;;;;10477302;28;20541;-37
2023/08/24 20:26:58;;;;;;;10.30;2.70;;;28.90;77.40;;;;;;10480149;28;20469;-39
2023/08/24 20:32:02;;;;;;;9.57;2.63;;;29.40;73.80;;;;;;10467251;28;20045;-38
2023/08/24 20:37:04;;;;;;;6.40;2.45;;;29.60;73.40;;;;;;10473481;28;20128;-37
2023/08/24 20:42:16;;;;;;;8.52;2.03;;;29.50;73.00;;;;;;10484447;28;20052;-35
2023/08/24 20:47:20;;;;;;;10.45;2.28;;;29.60;72.90;;;;;;10477347;28;20048;-36
2023/08/24 20:52:22;;;;;;;5.00;1.95;;;29.50;72.70;;;;;;10483421;28;20044;-37
2023/08/24 20:57:24;;;;;;;4.80;1.95;;;29.50;72.60;;;;;;10479008;28;20041;-33
2023/08/24 21:02:27;;;;;;;2.63;1.90;;;29.50;72.50;;;;;;10475011;28;20099;-39
2023/08/24 21:07:30;;;;;;;3.38;2.00;;;29.50;72.60;;;;;;10473232;28;20128;-34
2023/08/24 21:12:32;;;;;;;4.30;2.58;;;29.30;73.60;;;;;;10477408;28;20487;-34
2023/08/24 21:17:35;;;;;;;6.32;1.63;;;28.90;75.80;;;;;;10474935;28;20448;-35
2023/08/24 21:22:37;;;;;;;3.08;1.63;;;29.30;73.80;;;;;;10473985;28;20052;-35
2023/08/24 21:27:39;;;;;;;3.70;2.25;;;29.20;74.10;;;;;;10469984;28;20049;-34
2023/08/24 21:32:42;;;;;;;4.45;2.17;;;28.70;76.60;;;;;;10463276;28;20533;-39
2023/08/24 21:37:44;;;;;;;3.28;1.48;;;28.80;76.50;;;;;;10460946;28;20139;-33
2023/08/24 21:42:46;;;;;;;2.35;1.35;;;28.90;76.00;;;;;;10463073;28;20101;-37
2023/08/24 21:47:49;;;;;;;2.33;1.42;;;29.20;74.50;;;;;;10463549;28;20050;-36
2023/08/24 21:52:51;;;;;;;11.00;3.45;;;29.20;74.40;;;;;;10480769;28;20135;-34
2023/08/24 21:57:55;;;;;;;3.50;1.95;;;28.90;75.40;;;;;;10479574;28;20117;-37
2023/08/24 22:02:58;;;;;;;3.00;1.75;;;28.70;76.70;;;;;;10484433;28;20397;-38
2023/08/24 22:08:02;;;;;;;2.10;1.60;;;28.50;78.40;;;;;;10478074;28;20512;-37
2023/08/24 22:13:04;;;;;;;4.57;3.33;;;28.80;77.00;;;;;;10474846;28;20076;-34
2023/08/24 22:18:08;;;;;;;1.88;1.40;;;28.70;77.40;;;;;;10470379;28;20481;-35
2023/08/24 22:23:10;;;;;;;3.17;2.08;;;28.70;78.40;;;;;;10470579;28;20048;-40
2023/08/24 22:28:13;;;;;;;8.90;3.10;;;29.00;75.90;;;;;;10476713;28;20517;-36
2023/08/24 22:33:16;;;;;;;4.30;2.30;;;28.80;77.40;;;;;;10487877;28;20088;-39
2023/08/24 22:38:17;;;;;;;4.97;2.53;;;28.70;77.70;;;;;;10481962;28;20076;-40
2023/08/24 22:43:19;;;;;;;2.25;1.65;;;28.50;78.30;;;;;;10496292;28;20140;-41
2023/08/24 22:48:22;;;;;;;11.32;3.30;;;28.20;81.00;;;;;;10487233;28;20071;-36
2023/08/24 22:53:24;;;;;;;5.93;2.50;;;27.80;84.20;;;;;;10484049;28;20167;-34
2023/08/24 22:58:26;;;;;;;8.50;5.55;;;28.20;81.70;;;;;;10494174;28;20072;-31
2023/08/24 23:03:29;;;;;;;10.75;5.95;;;27.30;90.70;;;;;;10489078;28;20080;-38
2023/08/24 23:08:31;;;;;;;10.60;6.55;;;27.40;89.10;;;;;;10489907;28;20076;-36
2023/08/24 23:13:33;;;;;;;8.27;5.55;;;27.10;90.80;;;;;;10487739;28;20044;-37
2023/08/24 23:18:36;;;;;;;10.23;7.10;;;26.90;91.30;;;;;;10495742;28;20051;-40
2023/08/24 23:23:38;;;;;;;14.48;6.38;;;26.70;92.80;;;;;;10486580;28;20118;-34
2023/08/24 23:28:40;;;;;;;4.13;2.28;;;26.70;92.80;;;;;;10488896;28;20452;-36
2023/08/24 23:33:44;;;;;;;4.07;2.58;;;27.40;90.40;;;;;;10487457;28;20076;-35
2023/08/24 23:38:46;;;;;;;4.32;2.03;;;27.40;90.20;;;;;;10491956;28;20448;-33
2023/08/24 23:43:47;;;;;;;6.45;2.13;;;27.20;90.50;;;;;;10492813;28;20091;-36
2023/08/24 23:48:51;;;;;;;2.10;1.85;;;27.80;87.10;;;;;;10488573;28;20048;-34
2023/08/24 23:53:54;;;;;;;2.78;1.33;;;28.40;82.40;;;;;;10488037;28;20451;-37
2023/08/24 23:58:56;;;;;;;3.05;1.73;;;28.40;81.50;;;;;;10488657;28;20481;-37
